Terminal Aerodrome Forecast
Issued by NWS

Home | Current Version | Previous Version | Text Only | Print | Product List | Glossary On
Versions: 1 2 3 4 5 6 7 8 9 10 11 12 13 14 15 16 17 18 19 20 21 22 23 24 25 26
000
FTUS45 KREV 101700
TAFTRK
TAF
KTRK 101720Z 1018/1118 20006KT P6SM SCT100
     FM102200 24010KT P6SM VCTS SCT060CB BKN100
     FM110200 27010KT P6SM VCSH SCT060 BKN100
     FM110500 VRB03KT P6SM BKN100=

USA.gov is the U.S. government's official web portal to all federal, state and local government web resources and services.